sensor_id;sensor_type;location;lat;lon;timestamp;P1;durP1;ratioP1;P2;durP2;ratioP2
16660;SDS011;8444;52.012;5.048;2023-04-25T00:01:56;8.57;;;3.33;;
16660;SDS011;8444;52.012;5.048;2023-04-25T00:04:21;9.67;;;3.60;;
16660;SDS011;8444;52.012;5.048;2023-04-25T00:06:46;10.17;;;3.60;;
16660;SDS011;8444;52.012;5.048;2023-04-25T00:09:12;12.40;;;3.97;;
16660;SDS011;8444;52.012;5.048;2023-04-25T00:11:37;9.53;;;3.10;;
16660;SDS011;8444;52.012;5.048;2023-04-25T00:14:03;13.67;;;3.63;;
16660;SDS011;8444;52.012;5.048;2023-04-25T00:16:29;9.10;;;3.70;;
16660;SDS011;8444;52.012;5.048;2023-04-25T00:18:55;16.53;;;3.70;;
16660;SDS011;8444;52.012;5.048;2023-04-25T00:21:21;16.33;;;4.10;;
16660;SDS011;8444;52.012;5.048;2023-04-25T00:23:49;10.43;;;3.70;;
16660;SDS011;8444;52.012;5.048;2023-04-25T00:26:14;18.13;;;3.43;;
16660;SDS011;8444;52.012;5.048;2023-04-25T00:28:39;13.03;;;3.90;;
16660;SDS011;8444;52.012;5.048;2023-04-25T00:31:05;15.10;;;2.70;;
16660;SDS011;8444;52.012;5.048;2023-04-25T00:33:30;8.07;;;3.17;;
16660;SDS011;8444;52.012;5.048;2023-04-25T00:35:55;11.80;;;3.07;;
16660;SDS011;8444;52.012;5.048;2023-04-25T00:38:21;7.30;;;2.97;;
16660;SDS011;8444;52.012;5.048;2023-04-25T00:40:46;10.80;;;3.40;;
16660;SDS011;8444;52.012;5.048;2023-04-25T00:43:11;10.40;;;3.80;;
16660;SDS011;8444;52.012;5.048;2023-04-25T00:45:37;9.30;;;3.40;;
16660;SDS011;8444;52.012;5.048;2023-04-25T00:48:04;9.60;;;3.50;;
16660;SDS011;8444;52.012;5.048;2023-04-25T00:50:29;9.47;;;3.90;;
16660;SDS011;8444;52.012;5.048;2023-04-25T00:52:55;16.47;;;3.50;;
16660;SDS011;8444;52.012;5.048;2023-04-25T00:55:20;11.90;;;3.30;;
16660;SDS011;8444;52.012;5.048;2023-04-25T00:57:45;10.67;;;3.57;;
16660;SDS011;8444;52.012;5.048;2023-04-25T01:00:11;14.00;;;4.10;;
16660;SDS011;8444;52.012;5.048;2023-04-25T01:02:39;15.07;;;2.97;;
16660;SDS011;8444;52.012;5.048;2023-04-25T01:05:04;9.90;;;3.97;;
16660;SDS011;8444;52.012;5.048;2023-04-25T01:07:30;7.97;;;3.63;;
16660;SDS011;8444;52.012;5.048;2023-04-25T01:09:55;13.53;;;4.30;;
16660;SDS011;8444;52.012;5.048;2023-04-25T01:12:20;12.50;;;3.70;;
16660;SDS011;8444;52.012;5.048;2023-04-25T01:14:46;20.00;;;4.00;;
16660;SDS011;8444;52.012;5.048;2023-04-25T01:17:11;14.23;;;4.73;;
16660;SDS011;8444;52.012;5.048;2023-04-25T01:19:36;7.50;;;3.30;;
16660;SDS011;8444;52.012;5.048;2023-04-25T01:22:01;13.63;;;4.10;;
16660;SDS011;8444;52.012;5.048;2023-04-25T01:24:27;12.37;;;3.53;;
16660;SDS011;8444;52.012;5.048;2023-04-25T01:26:52;15.80;;;4.37;;
16660;SDS011;8444;52.012;5.048;2023-04-25T01:29:19;9.10;;;3.70;;
16660;SDS011;8444;52.012;5.048;2023-04-25T01:31:44;15.27;;;3.90;;
16660;SDS011;8444;52.012;5.048;2023-04-25T01:34:10;10.77;;;3.80;;
16660;SDS011;8444;52.012;5.048;2023-04-25T01:36:36;11.97;;;3.70;;
16660;SDS011;8444;52.012;5.048;2023-04-25T01:39:01;11.43;;;4.00;;
16660;SDS011;8444;52.012;5.048;2023-04-25T01:41:26;9.93;;;4.33;;
16660;SDS011;8444;52.012;5.048;2023-04-25T01:43:52;9.97;;;3.33;;
16660;SDS011;8444;52.012;5.048;2023-04-25T01:46:17;6.97;;;2.80;;
16660;SDS011;8444;52.012;5.048;2023-04-25T01:48:42;8.93;;;3.30;;
16660;SDS011;8444;52.012;5.048;2023-04-25T01:51:08;11.60;;;3.87;;
16660;SDS011;8444;52.012;5.048;2023-04-25T01:53:33;15.47;;;3.30;;
16660;SDS011;8444;52.012;5.048;2023-04-25T01:55:58;8.80;;;3.23;;
16660;SDS011;8444;52.012;5.048;2023-04-25T01:58:23;8.63;;;3.30;;
16660;SDS011;8444;52.012;5.048;2023-04-25T02:00:49;11.43;;;3.77;;
16660;SDS011;8444;52.012;5.048;2023-04-25T02:03:14;11.73;;;3.60;;
16660;SDS011;8444;52.012;5.048;2023-04-25T02:05:39;12.40;;;4.00;;
16660;SDS011;8444;52.012;5.048;2023-04-25T02:08:05;12.87;;;4.60;;
16660;SDS011;8444;52.012;5.048;2023-04-25T02:10:31;8.83;;;3.30;;
16660;SDS011;8444;52.012;5.048;2023-04-25T02:12:56;14.93;;;3.57;;
16660;SDS011;8444;52.012;5.048;2023-04-25T02:15:22;14.20;;;4.17;;
16660;SDS011;8444;52.012;5.048;2023-04-25T02:17:47;12.60;;;4.00;;
16660;SDS011;8444;52.012;5.048;2023-04-25T02:20:12;7.93;;;3.20;;
16660;SDS011;8444;52.012;5.048;2023-04-25T02:22:37;9.57;;;4.67;;
16660;SDS011;8444;52.012;5.048;2023-04-25T02:25:02;8.13;;;3.40;;
16660;SDS011;8444;52.012;5.048;2023-04-25T02:27:29;8.50;;;3.57;;
16660;SDS011;8444;52.012;5.048;2023-04-25T02:29:55;8.67;;;3.17;;
16660;SDS011;8444;52.012;5.048;2023-04-25T02:32:20;7.63;;;3.20;;
16660;SDS011;8444;52.012;5.048;2023-04-25T02:34:45;8.13;;;3.47;;
16660;SDS011;8444;52.012;5.048;2023-04-25T02:37:10;7.43;;;3.20;;
16660;SDS011;8444;52.012;5.048;2023-04-25T02:39:35;17.43;;;4.43;;
16660;SDS011;8444;52.012;5.048;2023-04-25T02:42:01;5.63;;;2.63;;
16660;SDS011;8444;52.012;5.048;2023-04-25T02:44:26;10.57;;;3.10;;
16660;SDS011;8444;52.012;5.048;2023-04-25T02:46:51;7.50;;;3.30;;
16660;SDS011;8444;52.012;5.048;2023-04-25T02:49:16;6.73;;;3.23;;
16660;SDS011;8444;52.012;5.048;2023-04-25T02:51:41;11.10;;;3.33;;
16660;SDS011;8444;52.012;5.048;2023-04-25T02:54:07;11.27;;;2.93;;
16660;SDS011;8444;52.012;5.048;2023-04-25T02:56:32;8.73;;;3.73;;
16660;SDS011;8444;52.012;5.048;2023-04-25T02:58:57;10.27;;;3.33;;
16660;SDS011;8444;52.012;5.048;2023-04-25T03:01:22;10.37;;;3.63;;
16660;SDS011;8444;52.012;5.048;2023-04-25T03:03:47;10.77;;;3.53;;
16660;SDS011;8444;52.012;5.048;2023-04-25T03:06:13;9.50;;;4.03;;
16660;SDS011;8444;52.012;5.048;2023-04-25T03:08:38;9.90;;;2.83;;
16660;SDS011;8444;52.012;5.048;2023-04-25T03:11:03;12.00;;;3.47;;
16660;SDS011;8444;52.012;5.048;2023-04-25T03:13:29;6.90;;;2.73;;
16660;SDS011;8444;52.012;5.048;2023-04-25T03:15:55;9.00;;;3.10;;
16660;SDS011;8444;52.012;5.048;2023-04-25T03:18:20;7.43;;;3.27;;
16660;SDS011;8444;52.012;5.048;2023-04-25T03:20:45;10.63;;;2.67;;
16660;SDS011;8444;52.012;5.048;2023-04-25T03:23:11;7.27;;;2.83;;
16660;SDS011;8444;52.012;5.048;2023-04-25T03:25:36;11.30;;;3.20;;
16660;SDS011;8444;52.012;5.048;2023-04-25T03:28:02;11.37;;;2.87;;
16660;SDS011;8444;52.012;5.048;2023-04-25T03:30:27;7.40;;;3.00;;
16660;SDS011;8444;52.012;5.048;2023-04-25T03:32:52;13.43;;;4.40;;
16660;SDS011;8444;52.012;5.048;2023-04-25T03:35:17;16.30;;;3.40;;
16660;SDS011;8444;52.012;5.048;2023-04-25T03:37:42;9.17;;;2.63;;
16660;SDS011;8444;52.012;5.048;2023-04-25T03:40:11;6.37;;;2.80;;
16660;SDS011;8444;52.012;5.048;2023-04-25T03:42:36;8.13;;;2.80;;
16660;SDS011;8444;52.012;5.048;2023-04-25T03:45:01;5.30;;;2.90;;
16660;SDS011;8444;52.012;5.048;2023-04-25T03:47:27;11.33;;;2.83;;
16660;SDS011;8444;52.012;5.048;2023-04-25T03:49:52;9.83;;;2.93;;
16660;SDS011;8444;52.012;5.048;2023-04-25T03:52:17;6.60;;;1.83;;
16660;SDS011;8444;52.012;5.048;2023-04-25T03:54:42;9.80;;;2.83;;
16660;SDS011;8444;52.012;5.048;2023-04-25T03:57:08;8.73;;;2.63;;
16660;SDS011;8444;52.012;5.048;2023-04-25T03:59:33;9.70;;;2.97;;
16660;SDS011;8444;52.012;5.048;2023-04-25T04:01:58;9.07;;;3.33;;
16660;SDS011;8444;52.012;5.048;2023-04-25T04:04:23;7.50;;;2.77;;
16660;SDS011;8444;52.012;5.048;2023-04-25T04:06:49;5.53;;;1.90;;
16660;SDS011;8444;52.012;5.048;2023-04-25T04:09:14;6.17;;;3.20;;
16660;SDS011;8444;52.012;5.048;2023-04-25T04:11:40;4.07;;;2.20;;
16660;SDS011;8444;52.012;5.048;2023-04-25T04:14:06;7.20;;;2.83;;
16660;SDS011;8444;52.012;5.048;2023-04-25T04:16:31;5.70;;;2.70;;
16660;SDS011;8444;52.012;5.048;2023-04-25T04:18:56;6.63;;;2.80;;
16660;SDS011;8444;52.012;5.048;2023-04-25T04:21:22;7.53;;;2.27;;
16660;SDS011;8444;52.012;5.048;2023-04-25T04:23:48;7.17;;;2.10;;
16660;SDS011;8444;52.012;5.048;2023-04-25T04:26:13;5.07;;;2.60;;
16660;SDS011;8444;52.012;5.048;2023-04-25T04:28:40;6.20;;;2.47;;
16660;SDS011;8444;52.012;5.048;2023-04-25T04:31:05;7.57;;;2.53;;
16660;SDS011;8444;52.012;5.048;2023-04-25T04:33:30;5.67;;;2.67;;
16660;SDS011;8444;52.012;5.048;2023-04-25T04:35:56;3.37;;;2.10;;
16660;SDS011;8444;52.012;5.048;2023-04-25T04:38:21;7.37;;;2.27;;
16660;SDS011;8444;52.012;5.048;2023-04-25T04:40:47;4.03;;;1.83;;
16660;SDS011;8444;52.012;5.048;2023-04-25T04:43:12;6.93;;;2.43;;
16660;SDS011;8444;52.012;5.048;2023-04-25T04:45:39;6.70;;;2.07;;
16660;SDS011;8444;52.012;5.048;2023-04-25T04:48:05;5.63;;;2.47;;
16660;SDS011;8444;52.012;5.048;2023-04-25T04:50:30;13.30;;;1.93;;
16660;SDS011;8444;52.012;5.048;2023-04-25T04:52:57;6.80;;;2.07;;
16660;SDS011;8444;52.012;5.048;2023-04-25T04:55:22;3.33;;;1.90;;
16660;SDS011;8444;52.012;5.048;2023-04-25T04:57:48;5.00;;;1.60;;
16660;SDS011;8444;52.012;5.048;2023-04-25T05:00:13;6.97;;;1.87;;
16660;SDS011;8444;52.012;5.048;2023-04-25T05:02:40;8.63;;;2.10;;
16660;SDS011;8444;52.012;5.048;2023-04-25T05:05:05;9.47;;;1.57;;
16660;SDS011;8444;52.012;5.048;2023-04-25T05:07:31;11.37;;;2.63;;
16660;SDS011;8444;52.012;5.048;2023-04-25T05:09:56;7.47;;;2.00;;
16660;SDS011;8444;52.012;5.048;2023-04-25T05:12:21;6.13;;;1.90;;
16660;SDS011;8444;52.012;5.048;2023-04-25T05:14:46;4.93;;;1.37;;
16660;SDS011;8444;52.012;5.048;2023-04-25T05:17:12;5.23;;;1.30;;
16660;SDS011;8444;52.012;5.048;2023-04-25T05:19:37;7.37;;;1.70;;
16660;SDS011;8444;52.012;5.048;2023-04-25T05:22:02;8.70;;;1.90;;
16660;SDS011;8444;52.012;5.048;2023-04-25T05:24:28;4.37;;;1.87;;
16660;SDS011;8444;52.012;5.048;2023-04-25T05:26:53;3.50;;;1.50;;
16660;SDS011;8444;52.012;5.048;2023-04-25T05:29:18;2.77;;;1.43;;
16660;SDS011;8444;52.012;5.048;2023-04-25T05:31:44;2.43;;;1.50;;
16660;SDS011;8444;52.012;5.048;2023-04-25T05:34:09;5.03;;;1.37;;
16660;SDS011;8444;52.012;5.048;2023-04-25T05:36:34;3.10;;;2.70;;
16660;SDS011;8444;52.012;5.048;2023-04-25T05:38:59;4.80;;;1.60;;
16660;SDS011;8444;52.012;5.048;2023-04-25T05:41:25;3.17;;;1.60;;
16660;SDS011;8444;52.012;5.048;2023-04-25T05:43:50;4.87;;;1.33;;
16660;SDS011;8444;52.012;5.048;2023-04-25T05:46:15;4.70;;;1.87;;
16660;SDS011;8444;52.012;5.048;2023-04-25T05:48:42;2.67;;;1.33;;
16660;SDS011;8444;52.012;5.048;2023-04-25T05:51:07;5.53;;;1.27;;
16660;SDS011;8444;52.012;5.048;2023-04-25T05:53:33;4.60;;;1.40;;
16660;SDS011;8444;52.012;5.048;2023-04-25T05:55:58;4.37;;;1.57;;
16660;SDS011;8444;52.012;5.048;2023-04-25T05:58:23;2.97;;;1.20;;
16660;SDS011;8444;52.012;5.048;2023-04-25T06:00:48;4.93;;;1.57;;
16660;SDS011;8444;52.012;5.048;2023-04-25T06:03:14;5.70;;;1.90;;
16660;SDS011;8444;52.012;5.048;2023-04-25T06:05:41;2.40;;;1.30;;
16660;SDS011;8444;52.012;5.048;2023-04-25T06:08:06;2.10;;;1.33;;
16660;SDS011;8444;52.012;5.048;2023-04-25T06:10:31;2.63;;;0.97;;
16660;SDS011;8444;52.012;5.048;2023-04-25T06:12:56;3.53;;;1.47;;
16660;SDS011;8444;52.012;5.048;2023-04-25T06:15:21;2.90;;;1.20;;
16660;SDS011;8444;52.012;5.048;2023-04-25T06:17:47;5.43;;;1.53;;
16660;SDS011;8444;52.012;5.048;2023-04-25T06:20:12;5.17;;;1.70;;
16660;SDS011;8444;52.012;5.048;2023-04-25T06:22:37;2.50;;;1.63;;
16660;SDS011;8444;52.012;5.048;2023-04-25T06:25:02;4.70;;;1.33;;
16660;SDS011;8444;52.012;5.048;2023-04-25T06:27:29;3.47;;;1.07;;
16660;SDS011;8444;52.012;5.048;2023-04-25T06:29:54;3.60;;;1.60;;
16660;SDS011;8444;52.012;5.048;2023-04-25T06:32:19;6.00;;;2.03;;
16660;SDS011;8444;52.012;5.048;2023-04-25T06:34:45;11.93;;;1.37;;
16660;SDS011;8444;52.012;5.048;2023-04-25T06:37:10;4.97;;;1.53;;
16660;SDS011;8444;52.012;5.048;2023-04-25T06:39:35;2.10;;;1.20;;
16660;SDS011;8444;52.012;5.048;2023-04-25T06:42:00;2.37;;;1.03;;
16660;SDS011;8444;52.012;5.048;2023-04-25T06:44:26;5.93;;;1.50;;
16660;SDS011;8444;52.012;5.048;2023-04-25T06:46:51;3.43;;;1.30;;
16660;SDS011;8444;52.012;5.048;2023-04-25T06:49:16;3.67;;;2.00;;
16660;SDS011;8444;52.012;5.048;2023-04-25T06:51:41;5.13;;;1.77;;
16660;SDS011;8444;52.012;5.048;2023-04-25T06:54:06;6.73;;;1.90;;
16660;SDS011;8444;52.012;5.048;2023-04-25T06:56:32;1.90;;;1.60;;
16660;SDS011;8444;52.012;5.048;2023-04-25T06:58:57;4.33;;;1.33;;
16660;SDS011;8444;52.012;5.048;2023-04-25T07:01:22;5.87;;;1.60;;
16660;SDS011;8444;52.012;5.048;2023-04-25T07:03:47;4.70;;;1.23;;
16660;SDS011;8444;52.012;5.048;2023-04-25T07:06:12;6.23;;;1.70;;
16660;SDS011;8444;52.012;5.048;2023-04-25T07:08:38;3.37;;;1.07;;
16660;SDS011;8444;52.012;5.048;2023-04-25T07:11:03;10.50;;;2.93;;
16660;SDS011;8444;52.012;5.048;2023-04-25T07:13:28;8.50;;;1.53;;
16660;SDS011;8444;52.012;5.048;2023-04-25T07:15:53;6.17;;;1.30;;
16660;SDS011;8444;52.012;5.048;2023-04-25T07:18:18;4.63;;;1.97;;
16660;SDS011;8444;52.012;5.048;2023-04-25T07:20:44;11.70;;;1.97;;
16660;SDS011;8444;52.012;5.048;2023-04-25T07:23:09;5.90;;;1.83;;
16660;SDS011;8444;52.012;5.048;2023-04-25T07:25:34;5.07;;;1.40;;
16660;SDS011;8444;52.012;5.048;2023-04-25T07:28:00;6.57;;;1.53;;
16660;SDS011;8444;52.012;5.048;2023-04-25T07:30:25;3.03;;;1.53;;
16660;SDS011;8444;52.012;5.048;2023-04-25T07:32:50;4.50;;;1.50;;
16660;SDS011;8444;52.012;5.048;2023-04-25T07:35:16;5.03;;;1.50;;
16660;SDS011;8444;52.012;5.048;2023-04-25T07:37:41;9.30;;;1.70;;
16660;SDS011;8444;52.012;5.048;2023-04-25T07:40:06;5.87;;;1.67;;
16660;SDS011;8444;52.012;5.048;2023-04-25T07:42:32;6.77;;;1.40;;
16660;SDS011;8444;52.012;5.048;2023-04-25T07:44:58;8.00;;;1.40;;
16660;SDS011;8444;52.012;5.048;2023-04-25T07:47:23;7.30;;;1.43;;
16660;SDS011;8444;52.012;5.048;2023-04-25T07:49:48;1.93;;;1.30;;
16660;SDS011;8444;52.012;5.048;2023-04-25T07:52:13;6.53;;;1.47;;
16660;SDS011;8444;52.012;5.048;2023-04-25T07:54:39;7.17;;;1.47;;
16660;SDS011;8444;52.012;5.048;2023-04-25T07:57:04;3.37;;;1.33;;
16660;SDS011;8444;52.012;5.048;2023-04-25T07:59:31;7.50;;;1.20;;
16660;SDS011;8444;52.012;5.048;2023-04-25T08:01:56;3.37;;;0.67;;
16660;SDS011;8444;52.012;5.048;2023-04-25T08:04:22;15.30;;;1.03;;
16660;SDS011;8444;52.012;5.048;2023-04-25T08:06:47;5.70;;;0.80;;
16660;SDS011;8444;52.012;5.048;2023-04-25T08:09:13;1.03;;;0.70;;
16660;SDS011;8444;52.012;5.048;2023-04-25T08:11:38;1.93;;;0.60;;
16660;SDS011;8444;52.012;5.048;2023-04-25T08:14:03;2.10;;;0.60;;
16660;SDS011;8444;52.012;5.048;2023-04-25T08:16:29;2.00;;;0.57;;
16660;SDS011;8444;52.012;5.048;2023-04-25T08:18:54;1.13;;;0.67;;
16660;SDS011;8444;52.012;5.048;2023-04-25T08:21:19;1.07;;;0.80;;
16660;SDS011;8444;52.012;5.048;2023-04-25T08:23:45;2.70;;;0.60;;
16660;SDS011;8444;52.012;5.048;2023-04-25T08:26:10;8.83;;;1.60;;
16660;SDS011;8444;52.012;5.048;2023-04-25T08:28:35;5.87;;;1.00;;
16660;SDS011;8444;52.012;5.048;2023-04-25T08:31:01;4.93;;;1.17;;
16660;SDS011;8444;52.012;5.048;2023-04-25T08:33:26;3.33;;;0.80;;
16660;SDS011;8444;52.012;5.048;2023-04-25T08:35:51;5.07;;;1.10;;
16660;SDS011;8444;52.012;5.048;2023-04-25T08:38:17;3.90;;;0.60;;
16660;SDS011;8444;52.012;5.048;2023-04-25T08:40:42;4.10;;;0.60;;
16660;SDS011;8444;52.012;5.048;2023-04-25T08:43:08;7.25;;;1.75;;
16660;SDS011;8444;52.012;5.048;2023-04-25T08:45:38;7.68;;;0.90;;
16660;SDS011;8444;52.012;5.048;2023-04-25T08:48:03;2.25;;;0.63;;
16660;SDS011;8444;52.012;5.048;2023-04-25T08:50:29;4.45;;;0.93;;
16660;SDS011;8444;52.012;5.048;2023-04-25T08:52:55;4.45;;;1.60;;
16660;SDS011;8444;52.012;5.048;2023-04-25T08:55:26;4.75;;;0.98;;
16660;SDS011;8444;52.012;5.048;2023-04-25T08:57:52;3.85;;;0.70;;
16660;SDS011;8444;52.012;5.048;2023-04-25T09:00:19;3.90;;;1.20;;
16660;SDS011;8444;52.012;5.048;2023-04-25T09:02:44;1.80;;;1.02;;
16660;SDS011;8444;52.012;5.048;2023-04-25T09:05:10;2.10;;;1.10;;
16660;SDS011;8444;52.012;5.048;2023-04-25T09:07:37;3.80;;;1.02;;
16660;SDS011;8444;52.012;5.048;2023-04-25T09:10:02;3.58;;;1.23;;
16660;SDS011;8444;52.012;5.048;2023-04-25T09:12:28;4.47;;;0.95;;
16660;SDS011;8444;52.012;5.048;2023-04-25T09:15:07;4.28;;;0.60;;
16660;SDS011;8444;52.012;5.048;2023-04-25T09:17:32;3.22;;;0.80;;
16660;SDS011;8444;52.012;5.048;2023-04-25T09:20:11;4.13;;;1.20;;
16660;SDS011;8444;52.012;5.048;2023-04-25T09:22:37;3.33;;;1.05;;
16660;SDS011;8444;52.012;5.048;2023-04-25T09:25:12;6.63;;;1.00;;
16660;SDS011;8444;52.012;5.048;2023-04-25T09:27:48;2.45;;;0.80;;
16660;SDS011;8444;52.012;5.048;2023-04-25T09:30:15;2.42;;;0.60;;
16660;SDS011;8444;52.012;5.048;2023-04-25T09:32:41;2.33;;;0.85;;
16660;SDS011;8444;52.012;5.048;2023-04-25T09:35:07;7.03;;;1.25;;
16660;SDS011;8444;52.012;5.048;2023-04-25T09:37:33;3.15;;;0.90;;
16660;SDS011;8444;52.012;5.048;2023-04-25T09:39:59;2.85;;;0.93;;
16660;SDS011;8444;52.012;5.048;2023-04-25T09:42:26;3.35;;;1.42;;
16660;SDS011;8444;52.012;5.048;2023-04-25T09:44:53;4.70;;;0.87;;
16660;SDS011;8444;52.012;5.048;2023-04-25T09:47:18;2.93;;;0.80;;
16660;SDS011;8444;52.012;5.048;2023-04-25T09:49:46;3.53;;;0.93;;
16660;SDS011;8444;52.012;5.048;2023-04-25T09:52:15;6.03;;;0.60;;
16660;SDS011;8444;52.012;5.048;2023-04-25T09:54:41;2.77;;;1.03;;
16660;SDS011;8444;52.012;5.048;2023-04-25T09:59:35;1.17;;;0.60;;
16660;SDS011;8444;52.012;5.048;2023-04-25T10:02:03;2.07;;;0.60;;
16660;SDS011;8444;52.012;5.048;2023-04-25T10:04:28;1.70;;;0.40;;
16660;SDS011;8444;52.012;5.048;2023-04-25T10:06:55;1.07;;;0.57;;
16660;SDS011;8444;52.012;5.048;2023-04-25T10:09:21;1.13;;;0.80;;
16660;SDS011;8444;52.012;5.048;2023-04-25T10:11:47;1.27;;;0.40;;
16660;SDS011;8444;52.012;5.048;2023-04-25T10:14:13;1.57;;;0.70;;
16660;SDS011;8444;52.012;5.048;2023-04-25T10:16:39;2.00;;;0.50;;
16660;SDS011;8444;52.012;5.048;2023-04-25T10:19:05;0.57;;;0.40;;
16660;SDS011;8444;52.012;5.048;2023-04-25T10:21:31;3.07;;;0.50;;
16660;SDS011;8444;52.012;5.048;2023-04-25T10:23:56;2.00;;;0.50;;
16660;SDS011;8444;52.012;5.048;2023-04-25T10:26:22;6.60;;;1.40;;
16660;SDS011;8444;52.012;5.048;2023-04-25T10:28:57;3.47;;;0.90;;
16660;SDS011;8444;52.012;5.048;2023-04-25T10:31:23;2.00;;;0.63;;
16660;SDS011;8444;52.012;5.048;2023-04-25T10:33:49;2.43;;;0.73;;
16660;SDS011;8444;52.012;5.048;2023-04-25T10:36:18;5.85;;;0.88;;
16660;SDS011;8444;52.012;5.048;2023-04-25T10:38:44;2.50;;;0.80;;
16660;SDS011;8444;52.012;5.048;2023-04-25T10:41:09;3.72;;;0.82;;
16660;SDS011;8444;52.012;5.048;2023-04-25T10:43:36;5.10;;;1.00;;
16660;SDS011;8444;52.012;5.048;2023-04-25T10:49:01;2.05;;;0.98;;
16660;SDS011;8444;52.012;5.048;2023-04-25T10:51:28;4.00;;;1.30;;
16660;SDS011;8444;52.012;5.048;2023-04-25T10:56:25;4.18;;;0.90;;
16660;SDS011;8444;52.012;5.048;2023-04-25T10:58:51;3.10;;;1.08;;
16660;SDS011;8444;52.012;5.048;2023-04-25T11:01:20;3.40;;;0.90;;
16660;SDS011;8444;52.012;5.048;2023-04-25T11:03:45;2.95;;;1.17;;
16660;SDS011;8444;52.012;5.048;2023-04-25T11:06:17;3.63;;;1.25;;
16660;SDS011;8444;52.012;5.048;2023-04-25T11:08:50;2.38;;;0.70;;
16660;SDS011;8444;52.012;5.048;2023-04-25T11:11:16;6.45;;;0.70;;
16660;SDS011;8444;52.012;5.048;2023-04-25T11:13:41;1.90;;;0.80;;
16660;SDS011;8444;52.012;5.048;2023-04-25T11:16:07;8.27;;;1.13;;
16660;SDS011;8444;52.012;5.048;2023-04-25T11:18:32;1.98;;;0.57;;
16660;SDS011;8444;52.012;5.048;2023-04-25T11:20:59;2.15;;;0.63;;
16660;SDS011;8444;52.012;5.048;2023-04-25T11:23:24;1.95;;;0.50;;
16660;SDS011;8444;52.012;5.048;2023-04-25T11:25:49;1.80;;;0.60;;
16660;SDS011;8444;52.012;5.048;2023-04-25T11:28:20;2.13;;;0.60;;
16660;SDS011;8444;52.012;5.048;2023-04-25T11:30:47;1.90;;;0.50;;
16660;SDS011;8444;52.012;5.048;2023-04-25T11:33:13;1.93;;;0.57;;
16660;SDS011;8444;52.012;5.048;2023-04-25T11:35:40;3.03;;;0.97;;
16660;SDS011;8444;52.012;5.048;2023-04-25T11:38:05;2.33;;;0.70;;
16660;SDS011;8444;52.012;5.048;2023-04-25T11:40:30;2.13;;;0.80;;
16660;SDS011;8444;52.012;5.048;2023-04-25T11:42:56;1.57;;;0.40;;
16660;SDS011;8444;52.012;5.048;2023-04-25T11:45:24;4.87;;;0.80;;
16660;SDS011;8444;52.012;5.048;2023-04-25T11:47:50;2.65;;;0.68;;
16660;SDS011;8444;52.012;5.048;2023-04-25T11:50:15;6.47;;;1.00;;
16660;SDS011;8444;52.012;5.048;2023-04-25T11:52:41;2.72;;;0.85;;
16660;SDS011;8444;52.012;5.048;2023-04-25T11:55:17;1.60;;;0.77;;
16660;SDS011;8444;52.012;5.048;2023-04-25T11:57:42;2.05;;;1.45;;
16660;SDS011;8444;52.012;5.048;2023-04-25T12:02:37;1.67;;;0.60;;
16660;SDS011;8444;52.012;5.048;2023-04-25T12:05:02;6.32;;;1.13;;
16660;SDS011;8444;52.012;5.048;2023-04-25T12:07:31;3.65;;;1.00;;
16660;SDS011;8444;52.012;5.048;2023-04-25T12:09:56;3.97;;;0.98;;
16660;SDS011;8444;52.012;5.048;2023-04-25T12:12:21;3.15;;;0.95;;
16660;SDS011;8444;52.012;5.048;2023-04-25T12:14:51;2.95;;;0.90;;
16660;SDS011;8444;52.012;5.048;2023-04-25T12:17:16;3.53;;;1.00;;
16660;SDS011;8444;52.012;5.048;2023-04-25T12:19:42;6.45;;;1.52;;
16660;SDS011;8444;52.012;5.048;2023-04-25T12:22:22;7.13;;;1.40;;
16660;SDS011;8444;52.012;5.048;2023-04-25T12:24:48;2.95;;;0.80;;
16660;SDS011;8444;52.012;5.048;2023-04-25T12:27:14;4.63;;;1.00;;
16660;SDS011;8444;52.012;5.048;2023-04-25T12:29:49;3.25;;;1.13;;
16660;SDS011;8444;52.012;5.048;2023-04-25T12:32:15;3.97;;;1.00;;
16660;SDS011;8444;52.012;5.048;2023-04-25T12:34:40;3.33;;;1.00;;
16660;SDS011;8444;52.012;5.048;2023-04-25T12:37:06;4.35;;;0.93;;
16660;SDS011;8444;52.012;5.048;2023-04-25T12:39:31;3.90;;;1.50;;
16660;SDS011;8444;52.012;5.048;2023-04-25T12:41:56;2.75;;;0.80;;
16660;SDS011;8444;52.012;5.048;2023-04-25T12:44:22;2.95;;;1.00;;
16660;SDS011;8444;52.012;5.048;2023-04-25T12:46:47;3.35;;;0.90;;
16660;SDS011;8444;52.012;5.048;2023-04-25T12:49:13;1.85;;;0.77;;
16660;SDS011;8444;52.012;5.048;2023-04-25T12:51:38;4.53;;;0.85;;
16660;SDS011;8444;52.012;5.048;2023-04-25T12:54:04;3.13;;;1.00;;
16660;SDS011;8444;52.012;5.048;2023-04-25T12:56:31;3.35;;;0.68;;
16660;SDS011;8444;52.012;5.048;2023-04-25T12:58:56;5.15;;;1.65;;
16660;SDS011;8444;52.012;5.048;2023-04-25T13:01:21;5.20;;;0.82;;
16660;SDS011;8444;52.012;5.048;2023-04-25T13:03:47;5.93;;;1.10;;
16660;SDS011;8444;52.012;5.048;2023-04-25T13:06:13;6.30;;;1.00;;
16660;SDS011;8444;52.012;5.048;2023-04-25T13:08:38;4.47;;;1.13;;
16660;SDS011;8444;52.012;5.048;2023-04-25T13:11:04;3.83;;;1.00;;
16660;SDS011;8444;52.012;5.048;2023-04-25T13:13:29;3.05;;;1.08;;
16660;SDS011;8444;52.012;5.048;2023-04-25T13:15:56;1.08;;;0.82;;
16660;SDS011;8444;52.012;5.048;2023-04-25T13:18:22;5.93;;;1.08;;
16660;SDS011;8444;52.012;5.048;2023-04-25T13:20:51;7.20;;;1.35;;
16660;SDS011;8444;52.012;5.048;2023-04-25T13:23:16;1.95;;;0.85;;
16660;SDS011;8444;52.012;5.048;2023-04-25T13:25:41;6.60;;;0.90;;
16660;SDS011;8444;52.012;5.048;2023-04-25T13:28:06;2.60;;;0.80;;
16660;SDS011;8444;52.012;5.048;2023-04-25T13:30:31;3.38;;;0.70;;
16660;SDS011;8444;52.012;5.048;2023-04-25T13:32:57;3.17;;;0.82;;
16660;SDS011;8444;52.012;5.048;2023-04-25T13:35:27;4.13;;;0.68;;
16660;SDS011;8444;52.012;5.048;2023-04-25T13:37:53;3.50;;;1.27;;
16660;SDS011;8444;52.012;5.048;2023-04-25T13:40:18;1.83;;;0.90;;
16660;SDS011;8444;52.012;5.048;2023-04-25T13:42:43;1.85;;;0.77;;
16660;SDS011;8444;52.012;5.048;2023-04-25T13:45:10;2.22;;;0.60;;
16660;SDS011;8444;52.012;5.048;2023-04-25T13:47:35;2.95;;;0.88;;
16660;SDS011;8444;52.012;5.048;2023-04-25T13:50:00;3.03;;;1.38;;
16660;SDS011;8444;52.012;5.048;2023-04-25T13:52:28;4.82;;;0.75;;
16660;SDS011;8444;52.012;5.048;2023-04-25T13:54:53;2.65;;;1.13;;
16660;SDS011;8444;52.012;5.048;2023-04-25T13:57:18;3.53;;;0.93;;
16660;SDS011;8444;52.012;5.048;2023-04-25T13:59:44;3.63;;;1.52;;
16660;SDS011;8444;52.012;5.048;2023-04-25T14:02:09;4.25;;;1.10;;
16660;SDS011;8444;52.012;5.048;2023-04-25T14:04:34;1.80;;;0.90;;
16660;SDS011;8444;52.012;5.048;2023-04-25T14:06:59;2.88;;;0.90;;
16660;SDS011;8444;52.012;5.048;2023-04-25T14:09:25;2.67;;;0.65;;
16660;SDS011;8444;52.012;5.048;2023-04-25T14:11:52;5.22;;;1.20;;
16660;SDS011;8444;52.012;5.048;2023-04-25T14:14:17;4.28;;;0.90;;
16660;SDS011;8444;52.012;5.048;2023-04-25T14:16:42;3.25;;;1.05;;
16660;SDS011;8444;52.012;5.048;2023-04-25T14:19:08;2.80;;;1.10;;
16660;SDS011;8444;52.012;5.048;2023-04-25T14:21:33;1.30;;;1.00;;
16660;SDS011;8444;52.012;5.048;2023-04-25T14:23:58;3.22;;;1.42;;
16660;SDS011;8444;52.012;5.048;2023-04-25T14:26:24;4.43;;;1.00;;
16660;SDS011;8444;52.012;5.048;2023-04-25T14:28:50;4.38;;;0.90;;
16660;SDS011;8444;52.012;5.048;2023-04-25T14:31:16;1.33;;;0.70;;
16660;SDS011;8444;52.012;5.048;2023-04-25T14:33:41;4.13;;;1.20;;
16660;SDS011;8444;52.012;5.048;2023-04-25T14:36:07;2.53;;;1.25;;
16660;SDS011;8444;52.012;5.048;2023-04-25T14:38:32;7.80;;;1.83;;
16660;SDS011;8444;52.012;5.048;2023-04-25T14:40:58;1.90;;;0.73;;
16660;SDS011;8444;52.012;5.048;2023-04-25T14:43:23;3.72;;;1.30;;
16660;SDS011;8444;52.012;5.048;2023-04-25T14:45:48;1.95;;;0.88;;
16660;SDS011;8444;52.012;5.048;2023-04-25T14:48:13;5.18;;;0.90;;
16660;SDS011;8444;52.012;5.048;2023-04-25T14:50:39;3.58;;;1.08;;
16660;SDS011;8444;52.012;5.048;2023-04-25T14:53:05;2.90;;;0.70;;
16660;SDS011;8444;52.012;5.048;2023-04-25T14:55:30;3.05;;;0.80;;
16660;SDS011;8444;52.012;5.048;2023-04-25T14:57:55;2.60;;;0.77;;
16660;SDS011;8444;52.012;5.048;2023-04-25T15:00:21;2.70;;;0.95;;
16660;SDS011;8444;52.012;5.048;2023-04-25T15:02:49;1.27;;;0.63;;